sensor_id;sensor_type;location;lat;lon;timestamp;pressure;altitude;pressure_sealevel;temperature;humidity
47104;BME280;32853;52.164;5.400;2023-09-19T00:01:41;100613.75;;;17.85;100.00
47104;BME280;32853;52.164;5.400;2023-09-19T00:04:09;100619.75;;;17.87;100.00
47104;BME280;32853;52.164;5.400;2023-09-19T00:06:38;100539.88;;;17.34;100.00
47104;BME280;32853;52.164;5.400;2023-09-19T00:09:03;100536.16;;;17.36;100.00
47104;BME280;32853;52.164;5.400;2023-09-19T00:11:31;100551.56;;;17.42;100.00
47104;BME280;32853;52.164;5.400;2023-09-19T00:13:57;100622.13;;;17.66;100.00
47104;BME280;32853;52.164;5.400;2023-09-19T00:16:24;100497.13;;;16.67;100.00
47104;BME280;32853;52.164;5.400;2023-09-19T00:18:51;100605.25;;;17.56;100.00
47104;BME280;32853;52.164;5.400;2023-09-19T00:21:16;100467.03;;;16.56;100.00
47104;BME280;32853;52.164;5.400;2023-09-19T00:23:41;100629.16;;;17.54;100.00
47104;BME280;32853;52.164;5.400;2023-09-19T00:26:07;100631.28;;;17.49;100.00
47104;BME280;32853;52.164;5.400;2023-09-19T00:28:32;100506.84;;;16.79;100.00
47104;BME280;32853;52.164;5.400;2023-09-19T00:30:57;100462.41;;;16.47;100.00
47104;BME280;32853;52.164;5.400;2023-09-19T00:33:26;100537.03;;;16.88;100.00
47104;BME280;32853;52.164;5.400;2023-09-19T00:35:53;100497.97;;;16.29;100.00
47104;BME280;32853;52.164;5.400;2023-09-19T00:38:20;100345.50;;;15.45;100.00
47104;BME280;32853;52.164;5.400;2023-09-19T00:40:55;100643.94;;;17.20;100.00
47104;BME280;32853;52.164;5.400;2023-09-19T00:43:24;100650.66;;;17.37;100.00
47104;BME280;32853;52.164;5.400;2023-09-19T00:46:02;100524.06;;;16.72;100.00
47104;BME280;32853;52.164;5.400;2023-09-19T00:48:41;100651.94;;;17.44;100.00
47104;BME280;32853;52.164;5.400;2023-09-19T00:51:11;100634.00;;;17.24;100.00
47104;BME280;32853;52.164;5.400;2023-09-19T00:53:43;100652.81;;;17.32;100.00
47104;BME280;32853;52.164;5.400;2023-09-19T00:56:17;100657.97;;;17.33;100.00
47104;BME280;32853;52.164;5.400;2023-09-19T00:58:44;100553.88;;;16.74;100.00
47104;BME280;32853;52.164;5.400;2023-09-19T01:01:12;100552.66;;;16.91;100.00
47104;BME280;32853;52.164;5.400;2023-09-19T01:03:40;100632.53;;;17.20;100.00
47104;BME280;32853;52.164;5.400;2023-09-19T01:06:14;100614.69;;;16.98;100.00
47104;BME280;32853;52.164;5.400;2023-09-19T01:08:44;100462.00;;;16.15;100.00
47104;BME280;32853;52.164;5.400;2023-09-19T01:14:28;100668.84;;;17.41;100.00
47104;BME280;32853;52.164;5.400;2023-09-19T01:17:24;100595.25;;;16.99;100.00
47104;BME280;32853;52.164;5.400;2023-09-19T01:22:56;100584.13;;;16.94;100.00
47104;BME280;32853;52.164;5.400;2023-09-19T01:25:51;100658.38;;;17.40;100.00
47104;BME280;32853;52.164;5.400;2023-09-19T01:31:09;100376.88;;;15.75;100.00
47104;BME280;32853;52.164;5.400;2023-09-19T01:36:28;100581.72;;;16.91;100.00
47104;BME280;32853;52.164;5.400;2023-09-19T01:38:55;100472.75;;;16.25;100.00
47104;BME280;32853;52.164;5.400;2023-09-19T01:41:26;100659.63;;;17.47;100.00
47104;BME280;32853;52.164;5.400;2023-09-19T01:43:55;100420.53;;;15.92;100.00
47104;BME280;32853;52.164;5.400;2023-09-19T01:46:25;100652.31;;;17.51;100.00
47104;BME280;32853;52.164;5.400;2023-09-19T01:49:08;100665.53;;;17.51;100.00
47104;BME280;32853;52.164;5.400;2023-09-19T01:51:52;100672.22;;;17.43;100.00
47104;BME280;32853;52.164;5.400;2023-09-19T01:54:27;100489.44;;;16.38;100.00
47104;BME280;32853;52.164;5.400;2023-09-19T01:57:33;100585.09;;;16.93;100.00
47104;BME280;32853;52.164;5.400;2023-09-19T02:00:13;100671.13;;;17.59;100.00
47104;BME280;32853;52.164;5.400;2023-09-19T02:02:44;100592.88;;;17.07;100.00
47104;BME280;32853;52.164;5.400;2023-09-19T02:05:47;100671.66;;;17.51;100.00
47104;BME280;32853;52.164;5.400;2023-09-19T02:08:21;100666.50;;;17.50;100.00
47104;BME280;32853;52.164;5.400;2023-09-19T02:10:55;100522.69;;;16.66;100.00
47104;BME280;32853;52.164;5.400;2023-09-19T02:13:26;100618.56;;;17.05;100.00
47104;BME280;32853;52.164;5.400;2023-09-19T02:15:53;100555.63;;;16.73;100.00
47104;BME280;32853;52.164;5.400;2023-09-19T02:18:44;100662.63;;;17.42;100.00
47104;BME280;32853;52.164;5.400;2023-09-19T02:21:10;100636.84;;;17.21;100.00
47104;BME280;32853;52.164;5.400;2023-09-19T02:23:45;100669.28;;;17.35;100.00
47104;BME280;32853;52.164;5.400;2023-09-19T02:26:19;100643.09;;;17.20;100.00
47104;BME280;32853;52.164;5.400;2023-09-19T02:28:46;100675.19;;;17.39;100.00
47104;BME280;32853;52.164;5.400;2023-09-19T02:31:12;100685.03;;;17.24;100.00
47104;BME280;32853;52.164;5.400;2023-09-19T02:33:37;100686.00;;;17.23;100.00
47104;BME280;32853;52.164;5.400;2023-09-19T02:36:04;100674.69;;;17.34;100.00
47104;BME280;32853;52.164;5.400;2023-09-19T02:41:38;100618.81;;;16.76;100.00
47104;BME280;32853;52.164;5.400;2023-09-19T02:44:13;100639.84;;;16.78;100.00
47104;BME280;32853;52.164;5.400;2023-09-19T02:46:40;100694.16;;;17.07;100.00
47104;BME280;32853;52.164;5.400;2023-09-19T02:49:05;100586.06;;;16.53;100.00
47104;BME280;32853;52.164;5.400;2023-09-19T02:51:32;100543.91;;;16.26;100.00
47104;BME280;32853;52.164;5.400;2023-09-19T02:53:59;100597.44;;;16.41;100.00
47104;BME280;32853;52.164;5.400;2023-09-19T02:56:25;100410.31;;;15.35;100.00
47104;BME280;32853;52.164;5.400;2023-09-19T02:58:57;100675.66;;;17.07;100.00
47104;BME280;32853;52.164;5.400;2023-09-19T03:01:39;100666.16;;;16.92;100.00
47104;BME280;32853;52.164;5.400;2023-09-19T03:04:05;100669.50;;;17.07;100.00
47104;BME280;32853;52.164;5.400;2023-09-19T03:06:38;100552.22;;;16.08;100.00
47104;BME280;32853;52.164;5.400;2023-09-19T03:09:04;100633.22;;;16.45;100.00
47104;BME280;32853;52.164;5.400;2023-09-19T03:11:31;100675.53;;;16.71;100.00
47104;BME280;32853;52.164;5.400;2023-09-19T03:14:11;100659.66;;;16.58;100.00
47104;BME280;32853;52.164;5.400;2023-09-19T03:16:38;100674.25;;;16.64;100.00
47104;BME280;32853;52.164;5.400;2023-09-19T03:19:05;100681.38;;;16.49;100.00
47104;BME280;32853;52.164;5.400;2023-09-19T03:21:30;100567.47;;;15.90;100.00
47104;BME280;32853;52.164;5.400;2023-09-19T03:23:57;100516.47;;;15.64;100.00
47104;BME280;32853;52.164;5.400;2023-09-19T03:26:22;100641.03;;;16.34;100.00
47104;BME280;32853;52.164;5.400;2023-09-19T03:28:55;100656.66;;;16.37;100.00
47104;BME280;32853;52.164;5.400;2023-09-19T03:31:24;100615.94;;;16.02;100.00
47104;BME280;32853;52.164;5.400;2023-09-19T03:33:55;100606.34;;;16.01;100.00
47104;BME280;32853;52.164;5.400;2023-09-19T03:36:29;100682.31;;;16.48;100.00
47104;BME280;32853;52.164;5.400;2023-09-19T03:48:56;100638.38;;;15.94;100.00
47104;BME280;32853;52.164;5.400;2023-09-19T03:51:26;100580.63;;;15.77;100.00
47104;BME280;32853;52.164;5.400;2023-09-19T03:53:52;100618.81;;;15.84;100.00
47104;BME280;32853;52.164;5.400;2023-09-19T03:56:18;100676.41;;;16.05;100.00
47104;BME280;32853;52.164;5.400;2023-09-19T03:58:56;100678.66;;;16.11;100.00
47104;BME280;32853;52.164;5.400;2023-09-19T04:01:21;100562.53;;;15.03;100.00
47104;BME280;32853;52.164;5.400;2023-09-19T04:03:47;100611.66;;;15.45;100.00
47104;BME280;32853;52.164;5.400;2023-09-19T04:06:31;100649.88;;;15.66;100.00
47104;BME280;32853;52.164;5.400;2023-09-19T04:08:56;100694.34;;;16.00;100.00
47104;BME280;32853;52.164;5.400;2023-09-19T04:11:30;100637.81;;;15.48;100.00
47104;BME280;32853;52.164;5.400;2023-09-19T04:14:05;100697.19;;;15.82;100.00
47104;BME280;32853;52.164;5.400;2023-09-19T04:16:33;100689.38;;;15.81;100.00
47104;BME280;32853;52.164;5.400;2023-09-19T04:18:58;100707.16;;;15.91;100.00
47104;BME280;32853;52.164;5.400;2023-09-19T04:21:28;100719.81;;;15.86;100.00
47104;BME280;32853;52.164;5.400;2023-09-19T04:23:58;100622.91;;;15.20;100.00
47104;BME280;32853;52.164;5.400;2023-09-19T04:26:27;100661.09;;;15.42;100.00
47104;BME280;32853;52.164;5.400;2023-09-19T04:28:53;100532.94;;;14.71;100.00
47104;BME280;32853;52.164;5.400;2023-09-19T04:31:19;100745.28;;;16.00;100.00
47104;BME280;32853;52.164;5.400;2023-09-19T04:33:57;100730.41;;;15.99;100.00
47104;BME280;32853;52.164;5.400;2023-09-19T04:36:31;100743.88;;;15.94;100.00
47104;BME280;32853;52.164;5.400;2023-09-19T04:38:56;100741.91;;;15.98;100.00
47104;BME280;32853;52.164;5.400;2023-09-19T04:41:27;100748.88;;;15.85;100.00
47104;BME280;32853;52.164;5.400;2023-09-19T04:43:58;100750.13;;;15.79;100.00
47104;BME280;32853;52.164;5.400;2023-09-19T04:46:31;100699.97;;;15.52;100.00
47104;BME280;32853;52.164;5.400;2023-09-19T04:48:56;100684.03;;;15.39;100.00
47104;BME280;32853;52.164;5.400;2023-09-19T04:51:22;100662.97;;;15.25;100.00
47104;BME280;32853;52.164;5.400;2023-09-19T04:53:49;100685.09;;;15.37;100.00
47104;BME280;32853;52.164;5.400;2023-09-19T04:56:14;100743.38;;;15.75;100.00
47104;BME280;32853;52.164;5.400;2023-09-19T04:58:40;100738.44;;;15.83;100.00
47104;BME280;32853;52.164;5.400;2023-09-19T05:01:05;100628.06;;;15.07;100.00
47104;BME280;32853;52.164;5.400;2023-09-19T05:03:31;100714.16;;;15.50;100.00
47104;BME280;32853;52.164;5.400;2023-09-19T05:05:56;100680.41;;;15.42;100.00
47104;BME280;32853;52.164;5.400;2023-09-19T05:08:22;100678.41;;;15.17;100.00
47104;BME280;32853;52.164;5.400;2023-09-19T05:10:48;100682.66;;;15.20;100.00
47104;BME280;32853;52.164;5.400;2023-09-19T05:13:14;100680.69;;;15.23;100.00
47104;BME280;32853;52.164;5.400;2023-09-19T05:15:39;100643.81;;;15.09;100.00
47104;BME280;32853;52.164;5.400;2023-09-19T05:18:05;100761.81;;;15.75;100.00
47104;BME280;32853;52.164;5.400;2023-09-19T05:20:31;100700.69;;;15.40;100.00
47104;BME280;32853;52.164;5.400;2023-09-19T05:23:02;100554.19;;;14.53;100.00
47104;BME280;32853;52.164;5.400;2023-09-19T05:25:37;100758.16;;;15.78;100.00
47104;BME280;32853;52.164;5.400;2023-09-19T05:28:05;100726.88;;;15.43;100.00
47104;BME280;32853;52.164;5.400;2023-09-19T05:30:35;100755.13;;;15.69;100.00
47104;BME280;32853;52.164;5.400;2023-09-19T05:33:04;100748.06;;;15.70;100.00
47104;BME280;32853;52.164;5.400;2023-09-19T05:35:30;100757.88;;;15.68;100.00
47104;BME280;32853;52.164;5.400;2023-09-19T05:38:06;100681.59;;;15.36;100.00
47104;BME280;32853;52.164;5.400;2023-09-19T05:40:34;100685.75;;;14.98;100.00
47104;BME280;32853;52.164;5.400;2023-09-19T05:43:02;100742.59;;;15.73;100.00
47104;BME280;32853;52.164;5.400;2023-09-19T05:45:30;100695.91;;;15.18;100.00
47104;BME280;32853;52.164;5.400;2023-09-19T05:48:14;100648.13;;;14.96;100.00
47104;BME280;32853;52.164;5.400;2023-09-19T05:50:43;100684.44;;;15.19;100.00
47104;BME280;32853;52.164;5.400;2023-09-19T05:53:20;100762.00;;;15.72;100.00
47104;BME280;32853;52.164;5.400;2023-09-19T05:55:51;100725.06;;;15.29;100.00
47104;BME280;32853;52.164;5.400;2023-09-19T05:58:31;100791.56;;;15.77;100.00
47104;BME280;32853;52.164;5.400;2023-09-19T06:01:05;100562.56;;;14.74;100.00
47104;BME280;32853;52.164;5.400;2023-09-19T06:03:34;100649.91;;;15.24;100.00
47104;BME280;32853;52.164;5.400;2023-09-19T06:06:01;100766.03;;;15.92;100.00
47104;BME280;32853;52.164;5.400;2023-09-19T06:08:38;100737.22;;;15.89;100.00
47104;BME280;32853;52.164;5.400;2023-09-19T06:11:07;100801.06;;;15.94;100.00
47104;BME280;32853;52.164;5.400;2023-09-19T06:13:38;100713.78;;;15.56;100.00
47104;BME280;32853;52.164;5.400;2023-09-19T06:16:04;100782.75;;;16.05;100.00
47104;BME280;32853;52.164;5.400;2023-09-19T06:18:32;100712.09;;;15.55;100.00
47104;BME280;32853;52.164;5.400;2023-09-19T06:21:04;100468.91;;;14.13;100.00
47104;BME280;32853;52.164;5.400;2023-09-19T06:23:33;100759.53;;;15.97;100.00
47104;BME280;32853;52.164;5.400;2023-09-19T06:25:59;100784.97;;;16.25;100.00
47104;BME280;32853;52.164;5.400;2023-09-19T06:28:24;100788.09;;;16.18;100.00
47104;BME280;32853;52.164;5.400;2023-09-19T06:30:52;100625.56;;;15.20;100.00
47104;BME280;32853;52.164;5.400;2023-09-19T06:33:18;100782.19;;;16.14;100.00
47104;BME280;32853;52.164;5.400;2023-09-19T06:35:59;100751.47;;;16.13;100.00
47104;BME280;32853;52.164;5.400;2023-09-19T06:38:43;100717.13;;;16.01;100.00
47104;BME280;32853;52.164;5.400;2023-09-19T06:41:21;100566.66;;;15.07;100.00
47104;BME280;32853;52.164;5.400;2023-09-19T06:43:54;100774.28;;;16.41;100.00
47104;BME280;32853;52.164;5.400;2023-09-19T06:46:19;100769.19;;;16.38;100.00
47104;BME280;32853;52.164;5.400;2023-09-19T06:48:51;100459.75;;;14.63;100.00
47104;BME280;32853;52.164;5.400;2023-09-19T06:51:18;100700.34;;;16.02;100.00
47104;BME280;32853;52.164;5.400;2023-09-19T06:53:43;100454.94;;;14.41;100.00
47104;BME280;32853;52.164;5.400;2023-09-19T06:56:15;100662.56;;;15.74;100.00
47104;BME280;32853;52.164;5.400;2023-09-19T06:58:40;100781.94;;;16.59;100.00
47104;BME280;32853;52.164;5.400;2023-09-19T07:01:11;100737.91;;;16.19;100.00
47104;BME280;32853;52.164;5.400;2023-09-19T07:03:39;100732.41;;;16.22;100.00
47104;BME280;32853;52.164;5.400;2023-09-19T07:06:05;100766.81;;;16.75;100.00
47104;BME280;32853;52.164;5.400;2023-09-19T07:08:33;100787.50;;;16.68;100.00
47104;BME280;32853;52.164;5.400;2023-09-19T07:11:16;100772.84;;;16.77;100.00
47104;BME280;32853;52.164;5.400;2023-09-19T07:13:42;100704.72;;;16.42;100.00
47104;BME280;32853;52.164;5.400;2023-09-19T07:16:07;100644.88;;;16.16;100.00
47104;BME280;32853;52.164;5.400;2023-09-19T07:18:41;100661.66;;;16.15;100.00
47104;BME280;32853;52.164;5.400;2023-09-19T07:21:10;100730.31;;;16.54;100.00
47104;BME280;32853;52.164;5.400;2023-09-19T07:23:43;100763.47;;;16.86;100.00
47104;BME280;32853;52.164;5.400;2023-09-19T07:26:08;100708.84;;;16.46;100.00
47104;BME280;32853;52.164;5.400;2023-09-19T07:28:41;100722.97;;;16.45;100.00
47104;BME280;32853;52.164;5.400;2023-09-19T07:31:25;100819.25;;;16.94;100.00
47104;BME280;32853;52.164;5.400;2023-09-19T07:33:57;100505.66;;;15.27;100.00
47104;BME280;32853;52.164;5.400;2023-09-19T07:36:22;100822.03;;;17.18;100.00
47104;BME280;32853;52.164;5.400;2023-09-19T07:38:53;100779.34;;;16.98;100.00
47104;BME280;32853;52.164;5.400;2023-09-19T07:41:20;100641.72;;;16.11;100.00
47104;BME280;32853;52.164;5.400;2023-09-19T07:43:49;100826.72;;;17.39;100.00
47104;BME280;32853;52.164;5.400;2023-09-19T07:46:15;100712.09;;;16.77;100.00
47104;BME280;32853;52.164;5.400;2023-09-19T07:48:41;100805.78;;;17.49;100.00
47104;BME280;32853;52.164;5.400;2023-09-19T07:51:16;100565.81;;;16.02;100.00
47104;BME280;32853;52.164;5.400;2023-09-19T07:53:43;100733.56;;;17.10;100.00
47104;BME280;32853;52.164;5.400;2023-09-19T07:56:09;100563.66;;;16.21;100.00
47104;BME280;32853;52.164;5.400;2023-09-19T07:58:35;100819.53;;;17.67;100.00
47104;BME280;32853;52.164;5.400;2023-09-19T08:01:05;100667.31;;;16.88;100.00
47104;BME280;32853;52.164;5.400;2023-09-19T08:03:32;100661.66;;;16.67;100.00
47104;BME280;32853;52.164;5.400;2023-09-19T08:05:57;100727.44;;;17.23;100.00
47104;BME280;32853;52.164;5.400;2023-09-19T08:08:25;100811.72;;;17.65;100.00
47104;BME280;32853;52.164;5.400;2023-09-19T08:10:58;100761.47;;;17.27;100.00
47104;BME280;32853;52.164;5.400;2023-09-19T08:13:25;100811.94;;;17.88;100.00
47104;BME280;32853;52.164;5.400;2023-09-19T08:15:51;100744.56;;;17.42;100.00
47104;BME280;32853;52.164;5.400;2023-09-19T08:18:18;100762.84;;;17.71;100.00
47104;BME280;32853;52.164;5.400;2023-09-19T08:20:49;100829.97;;;18.19;100.00
47104;BME280;32853;52.164;5.400;2023-09-19T08:23:20;100502.31;;;16.30;100.00
47104;BME280;32853;52.164;5.400;2023-09-19T08:25:47;100623.66;;;17.08;100.00
47104;BME280;32853;52.164;5.400;2023-09-19T08:28:12;100689.16;;;17.16;100.00
47104;BME280;32853;52.164;5.400;2023-09-19T08:30:42;100728.34;;;17.60;100.00
47104;BME280;32853;52.164;5.400;2023-09-19T08:33:08;100822.09;;;18.18;100.00
47104;BME280;32853;52.164;5.400;2023-09-19T08:35:33;100748.97;;;17.80;100.00
47104;BME280;32853;52.164;5.400;2023-09-19T08:37:59;100716.09;;;17.95;100.00
47104;BME280;32853;52.164;5.400;2023-09-19T08:40:30;100806.06;;;18.69;100.00
47104;BME280;32853;52.164;5.400;2023-09-19T08:42:58;100503.56;;;16.75;100.00
47104;BME280;32853;52.164;5.400;2023-09-19T08:45:25;100674.72;;;17.70;100.00
47104;BME280;32853;52.164;5.400;2023-09-19T08:50:31;100808.28;;;18.62;100.00
47104;BME280;32853;52.164;5.400;2023-09-19T08:53:10;100806.72;;;18.83;100.00
47104;BME280;32853;52.164;5.400;2023-09-19T08:55:39;100759.81;;;18.49;100.00
47104;BME280;32853;52.164;5.400;2023-09-19T08:58:10;100734.03;;;18.40;100.00
47104;BME280;32853;52.164;5.400;2023-09-19T09:00:36;100821.81;;;18.94;100.00
47104;BME280;32853;52.164;5.400;2023-09-19T09:03:02;100785.47;;;18.96;100.00
47104;BME280;32853;52.164;5.400;2023-09-19T09:05:29;100757.69;;;18.54;100.00
47104;BME280;32853;52.164;5.400;2023-09-19T09:07:58;100528.75;;;17.29;100.00
47104;BME280;32853;52.164;5.400;2023-09-19T09:10:24;100686.75;;;18.46;100.00
47104;BME280;32853;52.164;5.400;2023-09-19T09:12:51;100766.56;;;19.01;100.00
47104;BME280;32853;52.164;5.400;2023-09-19T09:15:23;100657.53;;;18.59;100.00
47104;BME280;32853;52.164;5.400;2023-09-19T09:18:06;100705.31;;;18.93;100.00
47104;BME280;32853;52.164;5.400;2023-09-19T09:20:32;100702.81;;;18.91;100.00
47104;BME280;32853;52.164;5.400;2023-09-19T09:23:05;100816.81;;;19.71;100.00
47104;BME280;32853;52.164;5.400;2023-09-19T09:26:07;100604.31;;;18.51;100.00
47104;BME280;32853;52.164;5.400;2023-09-19T09:28:35;100795.59;;;19.82;100.00
47104;BME280;32853;52.164;5.400;2023-09-19T09:31:01;100819.25;;;19.74;100.00
47104;BME280;32853;52.164;5.400;2023-09-19T09:33:37;100783.91;;;19.73;100.00
47104;BME280;32853;52.164;5.400;2023-09-19T09:36:04;100780.88;;;19.56;100.00
47104;BME280;32853;52.164;5.400;2023-09-19T09:38:47;100781.72;;;19.90;100.00
47104;BME280;32853;52.164;5.400;2023-09-19T09:41:36;100785.56;;;20.08;100.00
47104;BME280;32853;52.164;5.400;2023-09-19T09:44:14;100772.19;;;19.76;100.00
47104;BME280;32853;52.164;5.400;2023-09-19T09:46:45;100579.34;;;18.66;100.00
47104;BME280;32853;52.164;5.400;2023-09-19T09:49:27;100778.94;;;19.80;100.00
47104;BME280;32853;52.164;5.400;2023-09-19T09:52:04;100665.84;;;19.12;100.00
47104;BME280;32853;52.164;5.400;2023-09-19T09:55:01;100596.94;;;18.90;100.00
47104;BME280;32853;52.164;5.400;2023-09-19T09:57:30;100767.59;;;20.00;100.00
47104;BME280;32853;52.164;5.400;2023-09-19T10:00:00;100779.88;;;20.13;100.00
47104;BME280;32853;52.164;5.400;2023-09-19T10:02:38;100764.66;;;20.15;100.00
47104;BME280;32853;52.164;5.400;2023-09-19T10:07:46;100565.25;;;18.66;100.00
47104;BME280;32853;52.164;5.400;2023-09-19T10:10:39;100696.22;;;19.41;100.00
47104;BME280;32853;52.164;5.400;2023-09-19T10:13:06;100785.06;;;20.03;100.00
47104;BME280;32853;52.164;5.400;2023-09-19T10:15:33;100765.06;;;19.99;100.00
47104;BME280;32853;52.164;5.400;2023-09-19T10:18:01;100667.91;;;19.31;100.00
47104;BME280;32853;52.164;5.400;2023-09-19T10:21:00;100774.22;;;19.95;100.00
47104;BME280;32853;52.164;5.400;2023-09-19T10:23:30;100787.50;;;19.84;100.00
47104;BME280;32853;52.164;5.400;2023-09-19T10:26:01;100519.47;;;17.95;100.00
47104;BME280;32853;52.164;5.400;2023-09-19T10:28:28;100775.44;;;19.80;100.00
47104;BME280;32853;52.164;5.400;2023-09-19T10:31:00;100585.94;;;18.94;100.00
47104;BME280;32853;52.164;5.400;2023-09-19T10:33:36;100769.94;;;20.26;100.00
47104;BME280;32853;52.164;5.400;2023-09-19T10:36:10;100762.34;;;20.65;100.00
47104;BME280;32853;52.164;5.400;2023-09-19T10:38:43;100743.34;;;20.69;100.00
47104;BME280;32853;52.164;5.400;2023-09-19T10:41:25;100672.44;;;20.49;97.03
47104;BME280;32853;52.164;5.400;2023-09-19T10:43:53;100623.84;;;20.05;98.34
47104;BME280;32853;52.164;5.400;2023-09-19T10:46:25;100555.66;;;20.06;98.71
47104;BME280;32853;52.164;5.400;2023-09-19T10:48:51;100683.72;;;20.83;97.58
47104;BME280;32853;52.164;5.400;2023-09-19T10:51:25;100586.72;;;19.94;98.29
47104;BME280;32853;52.164;5.400;2023-09-19T10:56:51;100596.72;;;20.01;98.87
47104;BME280;32853;52.164;5.400;2023-09-19T10:59:19;100627.63;;;20.23;98.07
47104;BME280;32853;52.164;5.400;2023-09-19T11:02:18;100721.81;;;21.14;98.82
47104;BME280;32853;52.164;5.400;2023-09-19T11:04:44;100718.16;;;20.84;98.88
47104;BME280;32853;52.164;5.400;2023-09-19T11:07:13;100710.84;;;21.28;97.99
47104;BME280;32853;52.164;5.400;2023-09-19T11:09:52;100738.38;;;21.48;97.06
47104;BME280;32853;52.164;5.400;2023-09-19T11:26:49;100716.19;;;21.07;95.77
47104;BME280;32853;52.164;5.400;2023-09-19T11:29:28;100700.16;;;21.18;97.95
47104;BME280;32853;52.164;5.400;2023-09-19T11:31:57;100712.91;;;21.45;96.72
47104;BME280;32853;52.164;5.400;2023-09-19T11:34:39;100711.31;;;21.33;96.21
47104;BME280;32853;52.164;5.400;2023-09-19T11:39:39;100696.38;;;21.21;98.65
47104;BME280;32853;52.164;5.400;2023-09-19T11:48:15;100695.06;;;21.36;93.01
47104;BME280;32853;52.164;5.400;2023-09-19T11:50:44;100676.19;;;21.09;93.67
47104;BME280;32853;52.164;5.400;2023-09-19T11:53:11;100436.13;;;19.54;93.86
47104;BME280;32853;52.164;5.400;2023-09-19T11:55:38;100682.00;;;21.03;93.62
47104;BME280;32853;52.164;5.400;2023-09-19T11:58:06;100632.63;;;20.79;93.52
47104;BME280;32853;52.164;5.400;2023-09-19T12:00:33;100674.78;;;21.14;93.00
47104;BME280;32853;52.164;5.400;2023-09-19T12:03:09;100570.69;;;20.37;93.44
47104;BME280;32853;52.164;5.400;2023-09-19T12:05:35;100554.72;;;20.48;91.67
47104;BME280;32853;52.164;5.400;2023-09-19T12:08:05;100710.38;;;21.23;90.98
47104;BME280;32853;52.164;5.400;2023-09-19T12:10:54;100474.66;;;19.69;91.29
47104;BME280;32853;52.164;5.400;2023-09-19T12:13:21;100624.88;;;20.67;92.00
47104;BME280;32853;52.164;5.400;2023-09-19T12:15:46;100702.53;;;21.22;91.76
47104;BME280;32853;52.164;5.400;2023-09-19T12:18:31;100699.41;;;21.37;91.18
47104;BME280;32853;52.164;5.400;2023-09-19T12:20:58;100598.38;;;20.55;90.04
47104;BME280;32853;52.164;5.400;2023-09-19T12:23:25;100516.88;;;19.93;90.42
47104;BME280;32853;52.164;5.400;2023-09-19T12:25:58;100691.38;;;20.97;91.47
47104;BME280;32853;52.164;5.400;2023-09-19T12:28:27;100699.28;;;21.08;91.45
47104;BME280;32853;52.164;5.400;2023-09-19T12:30:54;100616.13;;;20.76;91.35
47104;BME280;32853;52.164;5.400;2023-09-19T12:33:43;100701.72;;;21.21;90.69
47104;BME280;32853;52.164;5.400;2023-09-19T12:36:24;100699.84;;;21.33;92.15
47104;BME280;32853;52.164;5.400;2023-09-19T12:38:57;100693.59;;;21.23;91.51
47104;BME280;32853;52.164;5.400;2023-09-19T12:41:34;100690.88;;;21.13;92.01
47104;BME280;32853;52.164;5.400;2023-09-19T12:44:22;100686.25;;;21.36;92.75
47104;BME280;32853;52.164;5.400;2023-09-19T12:46:50;100690.09;;;21.22;92.23
47104;BME280;32853;52.164;5.400;2023-09-19T12:49:19;100648.38;;;20.92;92.40
47104;BME280;32853;52.164;5.400;2023-09-19T12:51:49;100647.56;;;20.71;93.88
47104;BME280;32853;52.164;5.400;2023-09-19T12:54:17;100700.03;;;21.20;96.15
47104;BME280;32853;52.164;5.400;2023-09-19T12:56:53;100699.44;;;21.16;94.90
47104;BME280;32853;52.164;5.400;2023-09-19T12:59:35;100606.34;;;20.76;94.03
47104;BME280;32853;52.164;5.400;2023-09-19T13:02:04;100708.44;;;21.25;95.70
47104;BME280;32853;52.164;5.400;2023-09-19T13:04:55;100710.84;;;21.28;94.30
47104;BME280;32853;52.164;5.400;2023-09-19T13:07:45;100696.44;;;20.79;95.06
47104;BME280;32853;52.164;5.400;2023-09-19T13:10:18;100695.44;;;21.01;96.20
47104;BME280;32853;52.164;5.400;2023-09-19T13:12:52;100695.16;;;21.04;96.66
47104;BME280;32853;52.164;5.400;2023-09-19T13:15:17;100674.75;;;21.05;95.81
47104;BME280;32853;52.164;5.400;2023-09-19T13:17:49;100651.53;;;21.07;95.77
47104;BME280;32853;52.164;5.400;2023-09-19T13:20:25;100682.94;;;20.92;97.02
47104;BME280;32853;52.164;5.400;2023-09-19T13:22:53;100708.97;;;21.40;96.46
47104;BME280;32853;52.164;5.400;2023-09-19T13:25:21;100690.47;;;20.87;99.61
47104;BME280;32853;52.164;5.400;2023-09-19T13:27:48;100691.09;;;21.00;100.00
47104;BME280;32853;52.164;5.400;2023-09-19T13:30:17;100705.66;;;21.06;100.00
47104;BME280;32853;52.164;5.400;2023-09-19T13:32:44;100708.47;;;20.83;100.00
47104;BME280;32853;52.164;5.400;2023-09-19T13:35:09;100727.63;;;20.98;100.00
47104;BME280;32853;52.164;5.400;2023-09-19T13:37:36;100662.34;;;20.84;100.00
47104;BME280;32853;52.164;5.400;2023-09-19T13:40:05;100704.59;;;21.08;100.00
47104;BME280;32853;52.164;5.400;2023-09-19T13:42:34;100610.09;;;20.32;100.00
47104;BME280;32853;52.164;5.400;2023-09-19T13:45:05;100686.81;;;21.09;100.00
47104;BME280;32853;52.164;5.400;2023-09-19T13:47:34;100687.78;;;21.29;100.00
47104;BME280;32853;52.164;5.400;2023-09-19T13:50:02;100601.53;;;21.01;100.00
47104;BME280;32853;52.164;5.400;2023-09-19T13:52:29;100670.91;;;21.59;98.11
47104;BME280;32853;52.164;5.400;2023-09-19T13:55:00;100605.31;;;20.98;96.09
47104;BME280;32853;52.164;5.400;2023-09-19T13:57:26;100665.59;;;21.18;96.56
47104;BME280;32853;52.164;5.400;2023-09-19T13:59:58;100498.34;;;20.24;97.05